Time;durP1;ratioP1;P1;durP2;ratioP2;P2;SDS_P1;SDS_P2;PMS_P1;PMS_P2;Temp;Humidity;BMP_temperature;BMP_pressure;BME280_temperature;BME280_humidity;BME280_pressure;Samples;Min_cycle;Max_cycle;Signal;HPM_P1;HPM_P2
2024/03/19 00:00:19;;;;;;;17.40;8.35;;;;;;;;;;4966072;28;25053;-73
2024/03/19 00:02:46;;;;;;;15.15;7.65;;;;;;;;;;4967395;28;25078;-74
2024/03/19 00:05:12;;;;;;;16.75;7.97;;;;;;;;;;4961278;28;25074;-73
2024/03/19 00:07:38;;;;;;;12.82;7.95;;;;;;;;;;4969446;28;25057;-73
2024/03/19 00:10:04;;;;;;;12.57;7.57;;;;;;;;;;4971602;28;25100;-75
2024/03/19 00:12:32;;;;;;;17.73;8.40;;;;;;;;;;4973704;28;25070;-75
2024/03/19 00:14:59;;;;;;;14.95;8.95;;;;;;;;;;4978085;28;25148;-72
2024/03/19 00:17:26;;;;;;;16.80;8.10;;;;;;;;;;4971199;28;25052;-74
2024/03/19 00:19:52;;;;;;;16.52;8.18;;;;;;;;;;4976396;28;25117;-72
2024/03/19 00:22:19;;;;;;;14.95;8.30;;;;;;;;;;4975460;28;25077;-74
2024/03/19 00:24:45;;;;;;;15.75;9.25;;;;;;;;;;4971330;28;25093;-73
2024/03/19 00:27:12;;;;;;;16.13;9.13;;;;;;;;;;4963306;28;25088;-74
2024/03/19 00:29:38;;;;;;;14.35;9.07;;;;;;;;;;4971144;28;25067;-73
2024/03/19 00:32:05;;;;;;;15.38;8.65;;;;;;;;;;4972928;28;25079;-72
2024/03/19 00:34:31;;;;;;;18.17;9.45;;;;;;;;;;4971241;28;25052;-72
2024/03/19 00:36:59;;;;;;;17.63;9.30;;;;;;;;;;4968763;28;25097;-74
2024/03/19 00:39:28;;;;;;;15.82;10.00;;;;;;;;;;4963601;28;25143;-73
2024/03/19 00:41:54;;;;;;;18.00;9.48;;;;;;;;;;4983829;28;25050;-75
2024/03/19 00:44:20;;;;;;;21.02;9.90;;;;;;;;;;4967643;28;25077;-74
2024/03/19 00:46:46;;;;;;;17.45;10.00;;;;;;;;;;4972638;28;25123;-73
2024/03/19 00:49:12;;;;;;;18.83;10.38;;;;;;;;;;4970308;28;25064;-73
2024/03/19 00:51:37;;;;;;;20.38;11.38;;;;;;;;;;4972631;28;25056;-73
2024/03/19 00:54:03;;;;;;;19.27;11.38;;;;;;;;;;4968582;28;25137;-75
2024/03/19 00:56:30;;;;;;;21.58;11.82;;;;;;;;;;4966601;28;25078;-75
2024/03/19 00:58:56;;;;;;;19.65;11.82;;;;;;;;;;4978642;28;25143;-75
2024/03/19 01:01:23;;;;;;;18.98;11.35;;;;;;;;;;4974589;28;25075;-75
2024/03/19 01:03:49;;;;;;;19.40;12.45;;;;;;;;;;4968705;28;25049;-75
2024/03/19 01:06:15;;;;;;;22.00;12.63;;;;;;;;;;4966009;28;25055;-74
2024/03/19 01:08:42;;;;;;;19.88;12.50;;;;;;;;;;4969066;28;25101;-74
2024/03/19 01:11:09;;;;;;;22.83;13.20;;;;;;;;;;4962000;28;25088;-75
2024/03/19 01:13:34;;;;;;;24.00;12.07;;;;;;;;;;4962578;28;25058;-72
2024/03/19 01:16:00;;;;;;;19.88;12.43;;;;;;;;;;4961769;28;25071;-74
2024/03/19 01:18:26;;;;;;;24.40;12.82;;;;;;;;;;4971430;28;25102;-73
2024/03/19 01:20:53;;;;;;;19.33;11.82;;;;;;;;;;4968027;28;25070;-72
2024/03/19 01:23:19;;;;;;;21.85;12.40;;;;;;;;;;4980662;28;25076;-73
2024/03/19 01:25:45;;;;;;;20.33;12.40;;;;;;;;;;4967123;28;25107;-72
2024/03/19 01:28:13;;;;;;;25.35;11.48;;;;;;;;;;4975499;28;25102;-74
2024/03/19 01:30:39;;;;;;;22.17;11.52;;;;;;;;;;4967793;28;25093;-73
2024/03/19 01:33:05;;;;;;;20.20;10.43;;;;;;;;;;4984280;28;25059;-74
2024/03/19 01:35:31;;;;;;;19.05;9.65;;;;;;;;;;4984297;28;25082;-73
2024/03/19 01:37:57;;;;;;;18.95;9.27;;;;;;;;;;4976926;28;25069;-73
2024/03/19 01:40:23;;;;;;;31.98;9.52;;;;;;;;;;4997082;28;25083;-73
2024/03/19 01:42:49;;;;;;;11.90;8.13;;;;;;;;;;4980720;28;25135;-74
2024/03/19 01:45:15;;;;;;;13.00;7.00;;;;;;;;;;4979794;28;25101;-74
2024/03/19 01:47:42;;;;;;;13.90;6.50;;;;;;;;;;4973622;28;25096;-75
2024/03/19 01:50:12;;;;;;;14.07;6.80;;;;;;;;;;4976848;28;25069;-74
2024/03/19 01:52:52;;;;;;;14.13;5.63;;;;;;;;;;4976547;28;25125;-74
2024/03/19 01:55:20;;;;;;;12.23;5.40;;;;;;;;;;4966749;28;25110;-75
2024/03/19 01:57:47;;;;;;;12.10;4.45;;;;;;;;;;4976785;28;25141;-73
2024/03/19 02:00:13;;;;;;;14.25;5.50;;;;;;;;;;4971518;28;25066;-72
2024/03/19 02:02:39;;;;;;;9.95;4.63;;;;;;;;;;4978685;28;25067;-75
2024/03/19 02:05:06;;;;;;;10.27;4.38;;;;;;;;;;4978478;28;25076;-75
2024/03/19 02:07:33;;;;;;;10.10;4.20;;;;;;;;;;4971707;28;25155;-73
2024/03/19 02:09:59;;;;;;;9.05;4.10;;;;;;;;;;4972176;28;25113;-73
2024/03/19 02:12:25;;;;;;;9.82;3.83;;;;;;;;;;4974798;28;25048;-75
2024/03/19 02:14:52;;;;;;;8.48;3.88;;;;;;;;;;4967402;28;25053;-74
2024/03/19 02:17:18;;;;;;;8.75;4.03;;;;;;;;;;4972697;28;25153;-76
2024/03/19 02:19:44;;;;;;;11.73;3.78;;;;;;;;;;4969422;28;25062;-74
2024/03/19 02:22:11;;;;;;;8.32;3.92;;;;;;;;;;4969261;28;25063;-75
2024/03/19 02:24:41;;;;;;;13.07;4.30;;;;;;;;;;4971904;28;25061;-74
2024/03/19 02:27:07;;;;;;;8.95;3.60;;;;;;;;;;4969192;28;25058;-72
2024/03/19 02:29:33;;;;;;;10.82;4.55;;;;;;;;;;4969088;28;25069;-73
2024/03/19 02:31:59;;;;;;;9.35;3.72;;;;;;;;;;4960804;28;25147;-74
2024/03/19 02:34:26;;;;;;;9.43;3.80;;;;;;;;;;4960374;28;25055;-74
2024/03/19 02:36:52;;;;;;;9.23;4.30;;;;;;;;;;4975715;28;25064;-74
2024/03/19 02:39:18;;;;;;;10.02;4.95;;;;;;;;;;4971063;28;25063;-75
2024/03/19 02:41:44;;;;;;;12.73;5.20;;;;;;;;;;4971153;28;25061;-74
2024/03/19 02:44:10;;;;;;;9.90;5.13;;;;;;;;;;4969187;28;25090;-74
2024/03/19 02:46:37;;;;;;;8.68;5.88;;;;;;;;;;4977864;28;25105;-74
2024/03/19 02:49:04;;;;;;;11.70;5.88;;;;;;;;;;4970847;28;25082;-74
2024/03/19 02:51:31;;;;;;;12.82;5.55;;;;;;;;;;4973090;28;25056;-74
2024/03/19 02:53:57;;;;;;;13.75;5.65;;;;;;;;;;4971691;28;25089;-75
2024/03/19 02:56:26;;;;;;;11.10;6.22;;;;;;;;;;4973688;28;25143;-74
2024/03/19 02:58:52;;;;;;;11.50;5.78;;;;;;;;;;4965008;28;25063;-74
2024/03/19 03:01:18;;;;;;;14.38;6.75;;;;;;;;;;4973482;28;25075;-72
2024/03/19 03:03:44;;;;;;;16.45;5.60;;;;;;;;;;4974443;28;25068;-74
2024/03/19 03:06:10;;;;;;;13.50;6.30;;;;;;;;;;4970302;28;25061;-74
2024/03/19 03:08:36;;;;;;;13.82;6.20;;;;;;;;;;4963466;28;25119;-76
2024/03/19 03:11:03;;;;;;;14.27;6.72;;;;;;;;;;4971217;28;25092;-75
2024/03/19 03:13:29;;;;;;;12.20;6.90;;;;;;;;;;4981872;28;25069;-74
2024/03/19 03:15:56;;;;;;;14.73;6.63;;;;;;;;;;4970706;28;25063;-74
2024/03/19 03:18:22;;;;;;;11.02;6.28;;;;;;;;;;4974116;28;25063;-73
2024/03/19 03:20:48;;;;;;;16.17;7.75;;;;;;;;;;4967278;28;25049;-75
2024/03/19 03:23:14;;;;;;;14.48;6.72;;;;;;;;;;4970710;28;25077;-75
2024/03/19 03:25:40;;;;;;;13.82;6.00;;;;;;;;;;4967784;28;25065;-73
2024/03/19 03:28:06;;;;;;;15.77;6.63;;;;;;;;;;4973060;28;25059;-74
2024/03/19 03:30:32;;;;;;;13.63;6.32;;;;;;;;;;4968575;28;25062;-74
2024/03/19 03:32:58;;;;;;;10.68;5.50;;;;;;;;;;4967196;28;25164;-75
2024/03/19 03:35:27;;;;;;;11.70;5.55;;;;;;;;;;4968764;28;25062;-74
2024/03/19 03:37:53;;;;;;;16.40;5.53;;;;;;;;;;4970982;28;25143;-75
2024/03/19 03:40:19;;;;;;;10.73;5.47;;;;;;;;;;4964914;28;25086;-76
2024/03/19 03:42:45;;;;;;;22.85;5.82;;;;;;;;;;4962733;28;25064;-73
2024/03/19 03:45:12;;;;;;;13.10;5.43;;;;;;;;;;4970616;28;25096;-74
2024/03/19 03:47:38;;;;;;;10.40;4.85;;;;;;;;;;4970715;28;25063;-74
2024/03/19 03:50:06;;;;;;;13.02;5.43;;;;;;;;;;4973247;28;25072;-73
2024/03/19 03:52:32;;;;;;;14.82;5.75;;;;;;;;;;4969441;28;25069;-74
2024/03/19 03:55:05;;;;;;;15.52;5.70;;;;;;;;;;4974506;28;25054;-73
2024/03/19 03:57:33;;;;;;;10.93;5.32;;;;;;;;;;4971048;28;25133;-73
2024/03/19 03:59:59;;;;;;;11.70;5.25;;;;;;;;;;4965628;28;25060;-72
2024/03/19 04:02:25;;;;;;;13.70;5.40;;;;;;;;;;4965794;28;25079;-74
2024/03/19 04:04:54;;;;;;;11.02;5.72;;;;;;;;;;4964123;28;25081;-75
2024/03/19 04:07:20;;;;;;;9.55;6.00;;;;;;;;;;4983159;28;25073;-74
2024/03/19 04:09:46;;;;;;;10.98;6.28;;;;;;;;;;4970647;28;25069;-74
2024/03/19 04:12:12;;;;;;;18.42;6.30;;;;;;;;;;4964463;28;25062;-76
2024/03/19 04:14:38;;;;;;;16.08;6.07;;;;;;;;;;4966631;28;25157;-74
2024/03/19 04:17:04;;;;;;;12.38;6.55;;;;;;;;;;4970613;28;25075;-74
2024/03/19 04:19:30;;;;;;;10.30;7.40;;;;;;;;;;4973423;28;25150;-74
2024/03/19 04:21:56;;;;;;;13.75;7.15;;;;;;;;;;4977219;28;25108;-72
2024/03/19 04:24:22;;;;;;;17.52;7.05;;;;;;;;;;4981161;28;25091;-74
2024/03/19 04:26:48;;;;;;;14.57;7.20;;;;;;;;;;4974693;28;25106;-74
2024/03/19 04:29:18;;;;;;;16.58;8.60;;;;;;;;;;4970186;28;25112;-75
2024/03/19 04:31:44;;;;;;;16.58;8.73;;;;;;;;;;4976880;28;25080;-74
2024/03/19 04:34:11;;;;;;;14.60;8.93;;;;;;;;;;4970999;28;25061;-74
2024/03/19 04:36:37;;;;;;;15.25;8.40;;;;;;;;;;4970815;28;25059;-75
2024/03/19 04:39:03;;;;;;;16.52;9.02;;;;;;;;;;4968158;28;25048;-74
2024/03/19 04:41:29;;;;;;;18.25;9.88;;;;;;;;;;4966092;28;25064;-73
2024/03/19 04:43:55;;;;;;;18.05;10.10;;;;;;;;;;4968115;28;25069;-74
2024/03/19 04:46:21;;;;;;;17.40;10.00;;;;;;;;;;4972379;28;25116;-74
2024/03/19 04:48:47;;;;;;;18.88;9.95;;;;;;;;;;4973669;28;25069;-75
2024/03/19 04:51:15;;;;;;;15.95;9.80;;;;;;;;;;4963701;28;25068;-73
2024/03/19 04:53:41;;;;;;;16.08;10.13;;;;;;;;;;4973937;28;25053;-76
2024/03/19 04:56:07;;;;;;;11.43;8.20;;;;;;;;;;4971381;28;25071;-75
2024/03/19 04:58:33;;;;;;;15.32;8.93;;;;;;;;;;4981583;28;25060;-73
2024/03/19 05:00:59;;;;;;;12.68;8.32;;;;;;;;;;4991946;28;25101;-73
2024/03/19 05:03:25;;;;;;;13.48;8.00;;;;;;;;;;4985310;28;25180;-74
2024/03/19 05:05:52;;;;;;;18.15;8.88;;;;;;;;;;4975322;28;25070;-73
2024/03/19 05:08:18;;;;;;;11.77;8.15;;;;;;;;;;4980728;28;25068;-75
2024/03/19 05:10:44;;;;;;;12.23;8.23;;;;;;;;;;4978279;28;25072;-73
2024/03/19 05:13:10;;;;;;;16.60;8.25;;;;;;;;;;4978197;28;25092;-74
2024/03/19 05:15:36;;;;;;;15.50;8.07;;;;;;;;;;4971550;28;25131;-74
2024/03/19 05:18:02;;;;;;;16.38;8.25;;;;;;;;;;4972972;28;25077;-72
2024/03/19 05:20:28;;;;;;;15.75;8.00;;;;;;;;;;4973456;28;25079;-73
2024/03/19 05:22:54;;;;;;;19.55;8.18;;;;;;;;;;4974521;28;25074;-73
2024/03/19 05:25:21;;;;;;;12.32;7.40;;;;;;;;;;4985488;28;25063;-75
2024/03/19 05:27:47;;;;;;;13.52;7.30;;;;;;;;;;4967016;28;25068;-73
2024/03/19 05:30:13;;;;;;;17.55;8.00;;;;;;;;;;4980823;28;25099;-73
2024/03/19 05:32:39;;;;;;;11.95;7.22;;;;;;;;;;4981706;28;25070;-75
2024/03/19 05:35:06;;;;;;;16.90;8.18;;;;;;;;;;4975091;28;25150;-73
2024/03/19 05:37:32;;;;;;;10.20;6.95;;;;;;;;;;4974935;28;25057;-73
2024/03/19 05:39:58;;;;;;;17.42;8.90;;;;;;;;;;4973962;28;25043;-75
2024/03/19 05:42:24;;;;;;;17.50;8.70;;;;;;;;;;4971559;28;25050;-73
2024/03/19 05:44:53;;;;;;;17.38;8.23;;;;;;;;;;4973752;28;25060;-74
2024/03/19 05:47:19;;;;;;;15.77;8.43;;;;;;;;;;4977009;28;25136;-76
2024/03/19 05:49:45;;;;;;;14.32;7.53;;;;;;;;;;4968446;28;25068;-77
2024/03/19 05:52:11;;;;;;;14.68;8.13;;;;;;;;;;4969494;28;25051;-76
2024/03/19 05:54:37;;;;;;;15.15;7.80;;;;;;;;;;4967940;28;25113;-74
2024/03/19 05:57:03;;;;;;;13.68;7.68;;;;;;;;;;4971828;28;25152;-77
2024/03/19 05:59:30;;;;;;;14.70;7.60;;;;;;;;;;4971080;28;25080;-74
2024/03/19 06:01:58;;;;;;;15.57;7.68;;;;;;;;;;4977124;28;25058;-77
2024/03/19 06:04:24;;;;;;;14.80;7.88;;;;;;;;;;4975355;28;25071;-74
2024/03/19 06:06:50;;;;;;;14.90;7.30;;;;;;;;;;4970452;28;25129;-76
2024/03/19 06:09:16;;;;;;;14.45;7.68;;;;;;;;;;4977076;28;25085;-75
2024/03/19 06:11:42;;;;;;;13.10;7.10;;;;;;;;;;4977194;28;25079;-74
2024/03/19 06:14:09;;;;;;;11.57;6.95;;;;;;;;;;4973939;28;25075;-75
2024/03/19 06:16:35;;;;;;;14.52;7.07;;;;;;;;;;4968716;28;25045;-77
2024/03/19 06:19:01;;;;;;;14.43;6.38;;;;;;;;;;4972740;28;25073;-75
2024/03/19 06:21:27;;;;;;;12.60;6.13;;;;;;;;;;4965434;28;25052;-76
2024/03/19 06:23:53;;;;;;;14.68;6.03;;;;;;;;;;4956108;28;25064;-75
2024/03/19 06:26:19;;;;;;;11.07;5.68;;;;;;;;;;4968873;28;25068;-74
2024/03/19 06:28:45;;;;;;;10.82;6.00;;;;;;;;;;4969432;28;25128;-75
2024/03/19 06:31:11;;;;;;;16.42;6.43;;;;;;;;;;4963556;28;25075;-75
2024/03/19 06:33:37;;;;;;;12.75;6.28;;;;;;;;;;4968247;28;25063;-74
2024/03/19 06:36:03;;;;;;;12.57;5.72;;;;;;;;;;4966526;28;25051;-75
2024/03/19 06:38:29;;;;;;;12.20;5.93;;;;;;;;;;4970367;28;25062;-75
2024/03/19 06:40:59;;;;;;;14.75;6.38;;;;;;;;;;4969458;28;25144;-74
2024/03/19 06:43:25;;;;;;;19.90;6.07;;;;;;;;;;4970809;28;25107;-75
2024/03/19 06:45:52;;;;;;;15.73;5.90;;;;;;;;;;4968219;28;25064;-75
2024/03/19 06:48:18;;;;;;;11.75;5.68;;;;;;;;;;4966239;28;25060;-75
2024/03/19 06:50:45;;;;;;;14.30;6.00;;;;;;;;;;4965188;28;25069;-74
2024/03/19 06:53:11;;;;;;;18.08;6.15;;;;;;;;;;4965805;28;25079;-74
2024/03/19 06:55:37;;;;;;;11.85;5.22;;;;;;;;;;4966811;28;25067;-75
2024/03/19 06:58:03;;;;;;;11.65;5.63;;;;;;;;;;4961823;28;25082;-74
2024/03/19 07:00:32;;;;;;;10.98;5.50;;;;;;;;;;4969105;28;25152;-75
2024/03/19 07:02:58;;;;;;;12.95;5.90;;;;;;;;;;4963212;28;25059;-76
2024/03/19 07:05:24;;;;;;;13.43;6.53;;;;;;;;;;4965075;28;25079;-77
2024/03/19 07:07:54;;;;;;;13.13;5.70;;;;;;;;;;4979509;28;25065;-76
2024/03/19 07:10:21;;;;;;;13.25;5.97;;;;;;;;;;4983738;28;25061;-75
2024/03/19 07:12:47;;;;;;;9.25;5.78;;;;;;;;;;4975893;28;25047;-77
2024/03/19 07:15:18;;;;;;;11.90;5.95;;;;;;;;;;4968044;28;25065;-75
2024/03/19 07:17:49;;;;;;;11.43;5.60;;;;;;;;;;4970215;28;25080;-75
2024/03/19 07:20:18;;;;;;;12.20;6.67;;;;;;;;;;4973374;28;25072;-73
2024/03/19 07:22:44;;;;;;;15.02;6.20;;;;;;;;;;4968732;28;25095;-74
2024/03/19 07:25:10;;;;;;;13.95;6.40;;;;;;;;;;4972844;28;25088;-76
2024/03/19 07:27:41;;;;;;;14.38;6.72;;;;;;;;;;4972731;28;25091;-75
2024/03/19 07:30:11;;;;;;;18.98;7.05;;;;;;;;;;4971880;28;25067;-78
2024/03/19 07:32:37;;;;;;;10.32;5.70;;;;;;;;;;4986401;28;25073;-75
2024/03/19 07:35:04;;;;;;;16.42;7.30;;;;;;;;;;4982359;28;25099;-75
2024/03/19 07:37:30;;;;;;;13.32;5.95;;;;;;;;;;4974490;28;25053;-77
2024/03/19 07:39:57;;;;;;;12.52;5.90;;;;;;;;;;4968759;28;25133;-75
2024/03/19 07:42:23;;;;;;;15.63;6.60;;;;;;;;;;4966838;28;25162;-74
2024/03/19 07:44:51;;;;;;;12.18;6.45;;;;;;;;;;4976548;28;25088;-73
2024/03/19 07:47:18;;;;;;;14.38;6.85;;;;;;;;;;4971816;28;25061;-76
2024/03/19 07:49:44;;;;;;;11.90;6.88;;;;;;;;;;4973855;28;25090;-74
2024/03/19 07:52:14;;;;;;;10.02;6.63;;;;;;;;;;4967942;28;25069;-76
2024/03/19 07:54:40;;;;;;;11.10;6.10;;;;;;;;;;4970443;28;25073;-75
2024/03/19 07:57:06;;;;;;;13.82;7.28;;;;;;;;;;4973331;28;25092;-74
2024/03/19 07:59:32;;;;;;;12.68;6.28;;;;;;;;;;4965286;28;25143;-75
2024/03/19 08:01:58;;;;;;;12.30;6.45;;;;;;;;;;4974659;28;25148;-75
2024/03/19 08:04:24;;;;;;;10.75;6.57;;;;;;;;;;4970588;28;25074;-75
2024/03/19 08:06:51;;;;;;;16.50;6.82;;;;;;;;;;4973381;28;25088;-75
2024/03/19 08:09:18;;;;;;;13.48;6.22;;;;;;;;;;4960584;28;25143;-75
2024/03/19 08:11:44;;;;;;;10.35;5.72;;;;;;;;;;4974255;28;25164;-77
2024/03/19 08:14:10;;;;;;;13.18;6.63;;;;;;;;;;4961107;28;25083;-77
2024/03/19 08:16:36;;;;;;;11.88;6.63;;;;;;;;;;4969332;28;25088;-74
2024/03/19 08:19:03;;;;;;;18.02;6.75;;;;;;;;;;4957101;28;25056;-73
2024/03/19 08:21:29;;;;;;;15.40;6.22;;;;;;;;;;4971407;28;25061;-75
2024/03/19 08:23:55;;;;;;;11.48;5.78;;;;;;;;;;4967260;28;25118;-75
2024/03/19 08:26:21;;;;;;;11.25;6.45;;;;;;;;;;4964522;28;25076;-74
2024/03/19 08:28:47;;;;;;;13.52;5.68;;;;;;;;;;4973508;28;25084;-75
2024/03/19 08:31:13;;;;;;;13.82;6.05;;;;;;;;;;4960626;28;25058;-75
2024/03/19 08:33:40;;;;;;;13.30;6.05;;;;;;;;;;4961871;28;25144;-74
2024/03/19 08:36:06;;;;;;;12.63;5.55;;;;;;;;;;4960301;28;25062;-73
2024/03/19 08:38:35;;;;;;;11.93;5.70;;;;;;;;;;4959813;28;25124;-74
2024/03/19 08:41:03;;;;;;;12.38;5.97;;;;;;;;;;4964616;28;25064;-74
2024/03/19 08:43:29;;;;;;;12.18;5.32;;;;;;;;;;4964416;28;25059;-75
2024/03/19 08:45:55;;;;;;;15.35;5.50;;;;;;;;;;4961948;28;25057;-75
2024/03/19 08:48:21;;;;;;;15.35;5.60;;;;;;;;;;4964538;28;25075;-74
2024/03/19 08:50:47;;;;;;;12.35;5.40;;;;;;;;;;4967967;28;25070;-73
2024/03/19 08:53:13;;;;;;;12.02;4.72;;;;;;;;;;4964376;28;25057;-75
2024/03/19 08:55:40;;;;;;;15.05;6.10;;;;;;;;;;4970836;28;25079;-77
2024/03/19 08:58:06;;;;;;;13.40;5.47;;;;;;;;;;4979796;28;25064;-75
2024/03/19 09:00:32;;;;;;;12.77;5.35;;;;;;;;;;4968223;28;25065;-75
2024/03/19 09:02:58;;;;;;;11.80;5.30;;;;;;;;;;4978184;28;25094;-75
2024/03/19 09:05:24;;;;;;;10.60;4.85;;;;;;;;;;4971326;28;25052;-76
2024/03/19 09:07:50;;;;;;;12.98;5.35;;;;;;;;;;4974492;28;25077;-76
2024/03/19 09:10:16;;;;;;;12.63;5.03;;;;;;;;;;4977959;28;25074;-75
2024/03/19 09:12:42;;;;;;;12.20;5.00;;;;;;;;;;4970473;28;25086;-76
2024/03/19 09:15:11;;;;;;;12.32;5.15;;;;;;;;;;4968941;28;25108;-74
2024/03/19 09:17:41;;;;;;;10.32;5.18;;;;;;;;;;4963743;28;25077;-74
2024/03/19 09:20:07;;;;;;;9.93;4.25;;;;;;;;;;4968541;28;25078;-74
2024/03/19 09:22:34;;;;;;;9.25;4.70;;;;;;;;;;4974939;28;25095;-76
2024/03/19 09:25:01;;;;;;;14.15;4.55;;;;;;;;;;4983281;28;25065;-74
2024/03/19 09:27:27;;;;;;;11.52;4.25;;;;;;;;;;4984785;28;25068;-74
2024/03/19 09:29:53;;;;;;;11.30;4.10;;;;;;;;;;4975444;28;25087;-75
2024/03/19 09:32:19;;;;;;;16.52;4.25;;;;;;;;;;4983549;28;25082;-73
2024/03/19 09:34:45;;;;;;;10.60;3.92;;;;;;;;;;4978912;28;25061;-74
2024/03/19 09:37:11;;;;;;;13.10;3.88;;;;;;;;;;4973132;28;25058;-76
2024/03/19 09:39:37;;;;;;;16.40;4.07;;;;;;;;;;4973484;28;25187;-77
2024/03/19 09:42:06;;;;;;;8.77;3.90;;;;;;;;;;4981645;28;25058;-74
2024/03/19 09:44:32;;;;;;;11.93;4.70;;;;;;;;;;4969712;28;25146;-74
2024/03/19 09:46:59;;;;;;;14.95;5.15;;;;;;;;;;4966507;28;25068;-75
2024/03/19 09:49:32;;;;;;;14.85;3.60;;;;;;;;;;4975995;28;25068;-76
2024/03/19 09:51:59;;;;;;;14.38;3.88;;;;;;;;;;4978191;28;25053;-74
2024/03/19 09:54:26;;;;;;;9.13;3.35;;;;;;;;;;4975641;28;25120;-76
2024/03/19 09:56:52;;;;;;;11.32;3.80;;;;;;;;;;4964295;28;25147;-75
2024/03/19 09:59:18;;;;;;;13.35;4.13;;;;;;;;;;4970647;28;25098;-74
2024/03/19 10:01:44;;;;;;;11.52;4.22;;;;;;;;;;4963965;28;25082;-74
2024/03/19 10:04:14;;;;;;;10.32;3.50;;;;;;;;;;4970468;28;25091;-76
2024/03/19 10:06:40;;;;;;;8.38;3.40;;;;;;;;;;4971892;28;25142;-74
2024/03/19 10:09:06;;;;;;;12.02;3.50;;;;;;;;;;4966080;28;25156;-73
2024/03/19 10:11:35;;;;;;;8.35;3.33;;;;;;;;;;4972989;28;25105;-74
2024/03/19 10:14:02;;;;;;;12.30;3.10;;;;;;;;;;4975190;28;25066;-74
2024/03/19 10:16:29;;;;;;;9.75;3.20;;;;;;;;;;4956967;28;25097;-73
2024/03/19 10:18:56;;;;;;;9.90;2.92;;;;;;;;;;4963246;28;25049;-75
2024/03/19 10:21:22;;;;;;;11.32;2.70;;;;;;;;;;4972474;28;25064;-76
2024/03/19 10:23:48;;;;;;;11.18;3.28;;;;;;;;;;4967037;28;25069;-72
2024/03/19 10:26:16;;;;;;;10.15;2.80;;;;;;;;;;4967131;28;25057;-73
2024/03/19 10:28:43;;;;;;;13.73;2.80;;;;;;;;;;4970994;28;25134;-74
2024/03/19 10:31:12;;;;;;;13.48;3.53;;;;;;;;;;4971387;28;25070;-73
2024/03/19 10:33:38;;;;;;;4.97;2.40;;;;;;;;;;4972102;28;25075;-75
2024/03/19 10:36:05;;;;;;;9.05;2.95;;;;;;;;;;4967304;28;25072;-74
2024/03/19 10:38:31;;;;;;;10.73;2.97;;;;;;;;;;4964539;28;25066;-75
2024/03/19 10:40:57;;;;;;;9.73;3.05;;;;;;;;;;4969814;28;25075;-74
2024/03/19 10:43:23;;;;;;;8.68;3.10;;;;;;;;;;4968560;28;25047;-73
2024/03/19 10:45:50;;;;;;;7.97;2.70;;;;;;;;;;4969722;28;25065;-73
2024/03/19 10:48:16;;;;;;;11.32;3.30;;;;;;;;;;4966398;28;25072;-76
2024/03/19 10:50:44;;;;;;;11.13;3.03;;;;;;;;;;4978317;28;25137;-73
2024/03/19 10:53:13;;;;;;;14.20;3.15;;;;;;;;;;4970404;28;25048;-76
2024/03/19 10:55:40;;;;;;;10.57;3.40;;;;;;;;;;4970116;28;25058;-73
2024/03/19 10:58:11;;;;;;;11.57;3.10;;;;;;;;;;4975427;28;25053;-74
2024/03/19 11:00:41;;;;;;;12.63;4.10;;;;;;;;;;4972703;28;25080;-74
2024/03/19 11:03:07;;;;;;;10.98;2.80;;;;;;;;;;4969838;28;25077;-73
2024/03/19 11:05:33;;;;;;;15.82;3.38;;;;;;;;;;4972006;28;25019;-73
2024/03/19 11:07:59;;;;;;;14.18;4.10;;;;;;;;;;4969437;28;25142;-76
2024/03/19 11:10:30;;;;;;;9.80;3.80;;;;;;;;;;4966787;28;25160;-76
2024/03/19 11:13:06;;;;;;;11.77;3.38;;;;;;;;;;4965095;28;25081;-76
2024/03/19 11:15:32;;;;;;;10.15;3.25;;;;;;;;;;4977878;28;24882;-74
2024/03/19 11:17:59;;;;;;;6.10;2.90;;;;;;;;;;4976431;28;25156;-73
2024/03/19 11:20:31;;;;;;;8.50;3.47;;;;;;;;;;4972409;28;25072;-74
2024/03/19 11:22:58;;;;;;;13.02;3.78;;;;;;;;;;4969621;28;25100;-73
2024/03/19 11:25:27;;;;;;;12.82;3.53;;;;;;;;;;4969331;28;25123;-75
2024/03/19 11:27:55;;;;;;;11.63;3.50;;;;;;;;;;4968415;28;25056;-74
2024/03/19 11:30:23;;;;;;;11.88;3.53;;;;;;;;;;4970145;28;25062;-75
2024/03/19 11:32:49;;;;;;;10.95;3.78;;;;;;;;;;4961181;28;25076;-73
2024/03/19 11:35:19;;;;;;;7.82;2.97;;;;;;;;;;4961151;28;25075;-73
2024/03/19 11:37:49;;;;;;;12.80;4.13;;;;;;;;;;4970056;28;25067;-73
2024/03/19 11:40:16;;;;;;;10.60;3.38;;;;;;;;;;4978224;28;25074;-75
2024/03/19 11:42:42;;;;;;;14.52;4.57;;;;;;;;;;4962814;28;25063;-76
2024/03/19 11:45:17;;;;;;;10.75;3.53;;;;;;;;;;4968400;28;25045;-75
2024/03/19 11:47:44;;;;;;;12.82;4.43;;;;;;;;;;4959157;28;25049;-75
2024/03/19 11:50:18;;;;;;;12.13;3.80;;;;;;;;;;4973639;28;25098;-76
2024/03/19 11:52:45;;;;;;;11.32;3.38;;;;;;;;;;4974422;28;25101;-74
2024/03/19 11:55:11;;;;;;;12.43;3.20;;;;;;;;;;4968485;28;25128;-78
2024/03/19 11:57:37;;;;;;;11.02;3.65;;;;;;;;;;4958495;28;25074;-75
2024/03/19 12:00:11;;;;;;;13.25;4.43;;;;;;;;;;4969231;28;25166;-76
2024/03/19 12:02:38;;;;;;;10.40;3.47;;;;;;;;;;4970262;28;25105;-76
2024/03/19 12:05:04;;;;;;;12.40;3.97;;;;;;;;;;4967871;28;25078;-76
2024/03/19 12:07:30;;;;;;;11.20;3.53;;;;;;;;;;4967950;28;25077;-75
2024/03/19 12:09:56;;;;;;;20.65;3.90;;;;;;;;;;4968571;28;25087;-74
2024/03/19 12:12:22;;;;;;;11.45;3.75;;;;;;;;;;4965661;28;25108;-74
2024/03/19 12:14:49;;;;;;;12.48;3.22;;;;;;;;;;4965301;28;25079;-76
2024/03/19 12:17:15;;;;;;;12.60;3.38;;;;;;;;;;4960482;28;25119;-77
2024/03/19 12:19:42;;;;;;;7.20;2.85;;;;;;;;;;4966532;28;25073;-76
2024/03/19 12:22:13;;;;;;;13.88;3.10;;;;;;;;;;4965696;28;25075;-77
2024/03/19 12:24:39;;;;;;;9.83;3.23;;;;;;;;;;4960528;28;25080;-76
2024/03/19 12:27:06;;;;;;;13.07;3.25;;;;;;;;;;4965933;28;25110;-74
2024/03/19 12:29:32;;;;;;;8.38;2.47;;;;;;;;;;4969652;28;25156;-75
2024/03/19 12:32:04;;;;;;;10.35;3.25;;;;;;;;;;4972863;28;25055;-75
2024/03/19 12:37:10;;;;;;;8.80;3.05;;;;;;;;;;4968557;28;25109;-75
2024/03/19 12:39:36;;;;;;;11.75;3.28;;;;;;;;;;4973142;28;25079;-76
2024/03/19 12:42:03;;;;;;;4.57;2.58;;;;;;;;;;4970026;28;25065;-74
2024/03/19 12:44:32;;;;;;;10.00;2.72;;;;;;;;;;4970927;28;25079;-75
2024/03/19 12:46:58;;;;;;;8.90;3.00;;;;;;;;;;4970755;28;25080;-74
2024/03/19 12:49:25;;;;;;;14.40;4.85;;;;;;;;;;4977807;28;25068;-74
2024/03/19 12:51:52;;;;;;;8.07;2.60;;;;;;;;;;4973112;28;25069;-74
2024/03/19 12:54:18;;;;;;;8.98;3.40;;;;;;;;;;4976086;28;25155;-74
2024/03/19 12:56:44;;;;;;;7.40;3.78;;;;;;;;;;4971789;28;25176;-76
2024/03/19 12:59:10;;;;;;;10.52;2.70;;;;;;;;;;4973371;28;25053;-77
2024/03/19 13:01:36;;;;;;;8.13;2.97;;;;;;;;;;4975606;28;25084;-75
2024/03/19 13:04:02;;;;;;;8.73;3.20;;;;;;;;;;4973607;28;25065;-75
2024/03/19 13:06:28;;;;;;;12.77;3.13;;;;;;;;;;4979238;28;25151;-75
2024/03/19 13:08:54;;;;;;;9.52;3.72;;;;;;;;;;4971850;28;25064;-77
2024/03/19 13:11:20;;;;;;;9.30;3.03;;;;;;;;;;4980476;28;25053;-76
2024/03/19 13:13:46;;;;;;;6.15;2.72;;;;;;;;;;4985918;28;25068;-75
2024/03/19 13:16:12;;;;;;;9.00;2.85;;;;;;;;;;4994615;28;25057;-76
2024/03/19 13:18:38;;;;;;;8.20;2.80;;;;;;;;;;4974456;28;25069;-77
2024/03/19 13:21:04;;;;;;;6.72;2.42;;;;;;;;;;4974877;28;25055;-77
2024/03/19 13:23:31;;;;;;;6.55;2.72;;;;;;;;;;4982762;28;25074;-76
2024/03/19 13:25:57;;;;;;;5.68;2.63;;;;;;;;;;4969768;28;25107;-77
2024/03/19 13:28:23;;;;;;;5.78;2.33;;;;;;;;;;4974887;28;25085;-77
2024/03/19 13:30:49;;;;;;;7.53;2.58;;;;;;;;;;4974092;28;25071;-75
2024/03/19 13:33:15;;;;;;;10.20;2.53;;;;;;;;;;4967952;28;25063;-77
2024/03/19 13:35:41;;;;;;;6.25;2.90;;;;;;;;;;4968596;28;25092;-77
2024/03/19 13:38:07;;;;;;;8.10;2.88;;;;;;;;;;4973587;28;25072;-75
2024/03/19 13:40:33;;;;;;;5.70;2.70;;;;;;;;;;4974103;28;25141;-74
2024/03/19 13:42:59;;;;;;;7.53;3.40;;;;;;;;;;4983072;28;25062;-74
2024/03/19 13:45:27;;;;;;;8.95;2.70;;;;;;;;;;4983711;28;25105;-75
2024/03/19 13:47:53;;;;;;;8.00;3.70;;;;;;;;;;4984212;28;25069;-74
2024/03/19 13:50:19;;;;;;;4.22;2.50;;;;;;;;;;4974987;28;25123;-75
2024/03/19 13:52:45;;;;;;;10.15;3.33;;;;;;;;;;4971314;28;25095;-76
2024/03/19 13:55:11;;;;;;;10.43;3.63;;;;;;;;;;4977568;28;25056;-74
2024/03/19 13:57:37;;;;;;;10.05;3.13;;;;;;;;;;4974048;28;25049;-75
2024/03/19 14:00:08;;;;;;;8.77;3.50;;;;;;;;;;4967967;28;25050;-78
2024/03/19 14:02:34;;;;;;;9.15;3.83;;;;;;;;;;4973456;28;25056;-75
2024/03/19 14:05:00;;;;;;;7.47;3.58;;;;;;;;;;4965074;28;25071;-77
2024/03/19 14:07:29;;;;;;;9.30;4.22;;;;;;;;;;4959520;28;25107;-82
2024/03/19 14:09:57;;;;;;;12.13;5.28;;;;;;;;;;4970215;28;25061;-76
2024/03/19 14:12:23;;;;;;;12.85;4.88;;;;;;;;;;4976309;28;25162;-75
2024/03/19 14:14:50;;;;;;;12.65;4.95;;;;;;;;;;4969712;28;25070;-74
2024/03/19 14:17:16;;;;;;;11.10;5.70;;;;;;;;;;4970926;28;25072;-78
2024/03/19 14:19:42;;;;;;;13.38;5.90;;;;;;;;;;4970583;28;25086;-74
2024/03/19 14:22:08;;;;;;;13.55;5.93;;;;;;;;;;4954982;28;25066;-81
2024/03/19 14:24:36;;;;;;;14.75;5.70;;;;;;;;;;4961078;28;25049;-73
2024/03/19 14:27:02;;;;;;;12.93;6.07;;;;;;;;;;4966338;28;25076;-75
2024/03/19 14:29:28;;;;;;;11.40;4.97;;;;;;;;;;4966283;28;25054;-78